KCRP/CRP METAR and TAF weather

Enter ICAO airport designator
Station Type Date Time Source
KCRP METAR 2020/07/03 13:51 UTC NOAA

KCRP 031351Z 14005KT 10SM FEW014 FEW026 OVC250 27/26 A2999 RMK AO2 SLP154 T02720256 $


Station Type Date Time Source
KCRP Decoded METAR 2020/07/03 13:51 UTC NOAA

CORPUS CHRISTI INTERNATIONAL , TX, United States (KCRP) 27-46N 97-31W 16M
Jul 03, 2020 - 09:51 AM EDT / 2020.07.03 1351 UTC
Wind: from the SE (140 degrees) at 6 MPH (5 KT):0
Visibility: 10 mile(s):0
Sky conditions: overcast
Temperature: 81.0 F (27.2 C)
Dew Point: 78.1 F (25.6 C)
Relative Humidity: 90%
Pressure (altimeter): 29.99 in. Hg (1015 hPa)
ob: KCRP 031351Z 14005KT 10SM FEW014 FEW026 OVC250 27/26 A2999 RMK AO2 SLP154 T02720256
cycle: 14

Station Type Date Time Source
KCRP TAF 2020/07/03 12:36 UTC NOAA

TAF KCRP 031135Z 0312/0412 16004KT P6SM SCT020 BKN250
TEMPO 0312/0313 6SM HZ
FM031500 16010G15KT P6SM SCT030
FM032000 12015G20KT P6SM SCT045
FM040400 17010KT P6SM SCT012
FM041000 18004KT 5SM BR SCT001 BKN012

Example: see airport list